createdAt,value
2018-07-25T00:02:22.999Z,10.73
2018-07-25T00:04:52.071Z,11.40
2018-07-25T00:07:20.930Z,11.10
2018-07-25T00:09:50.291Z,11.10
2018-07-25T00:12:19.285Z,11.20
2018-07-25T00:14:48.278Z,11.30
2018-07-25T00:17:17.233Z,10.90
2018-07-25T00:19:46.119Z,11.73
2018-07-25T00:22:15.058Z,11.10
2018-07-25T00:24:44.046Z,11.30
2018-07-25T00:27:12.703Z,11.73
2018-07-25T00:29:41.393Z,10.97
2018-07-25T00:32:10.315Z,11.00
2018-07-25T00:34:39.365Z,11.40
2018-07-25T00:37:08.554Z,11.33
2018-07-25T00:39:39.024Z,11.60
2018-07-25T00:42:07.848Z,11.47
2018-07-25T00:44:36.512Z,11.03
2018-07-25T00:47:05.465Z,12.10
2018-07-25T00:49:34.418Z,10.87
2018-07-25T00:52:03.064Z,10.70
2018-07-25T00:54:31.977Z,12.63
2018-07-25T00:57:00.667Z,11.10
2018-07-25T00:59:29.344Z,11.50
2018-07-25T01:01:58.404Z,11.80
2018-07-25T01:04:27.040Z,11.07
2018-07-25T01:06:55.737Z,11.87
2018-07-25T01:09:24.956Z,11.77
2018-07-25T01:11:54.529Z,11.57
2018-07-25T01:14:23.533Z,12.03
2018-07-25T01:16:53.279Z,11.83
2018-07-25T01:19:22.035Z,11.70
2018-07-25T01:21:50.904Z,10.53
2018-07-25T01:24:19.585Z,11.27
2018-07-25T01:26:48.341Z,12.13
2018-07-25T01:29:17.438Z,11.60
2018-07-25T01:31:46.586Z,11.23
2018-07-25T01:34:15.686Z,12.27
2018-07-25T01:36:45.165Z,11.67
2018-07-25T01:39:15.035Z,11.37
2018-07-25T01:41:44.531Z,11.50
2018-07-25T01:44:14.101Z,11.07
2018-07-25T01:46:44.012Z,12.00
2018-07-25T01:49:13.048Z,10.60
2018-07-25T01:51:44.036Z,11.33
2018-07-25T01:54:13.794Z,12.00
2018-07-25T01:56:42.777Z,11.50
2018-07-25T01:59:11.666Z,11.07
2018-07-25T02:01:41.345Z,11.43
2018-07-25T02:04:10.030Z,11.10
2018-07-25T02:06:39.147Z,11.67
2018-07-25T02:09:11.727Z,11.53
2018-07-25T02:11:40.697Z,11.53
2018-07-25T02:14:09.934Z,11.80
2018-07-25T02:16:38.578Z,11.27
2018-07-25T02:19:07.311Z,11.43
2018-07-25T02:21:36.611Z,11.30
2018-07-25T02:24:05.913Z,11.03
2018-07-25T02:26:34.907Z,12.00
2018-07-25T02:29:03.724Z,10.90
2018-07-25T02:31:32.408Z,11.43
2018-07-25T02:34:06.598Z,12.33
2018-07-25T02:36:35.384Z,12.30
2018-07-25T02:39:05.085Z,11.60
2018-07-25T02:41:33.743Z,11.43
2018-07-25T02:44:02.776Z,12.30
2018-07-25T02:46:32.082Z,11.40
2018-07-25T02:49:00.978Z,11.60
2018-07-25T02:51:30.379Z,11.93
2018-07-25T02:53:59.001Z,11.57
2018-07-25T02:56:27.664Z,12.60
2018-07-25T02:58:56.714Z,12.03
2018-07-25T03:01:25.655Z,11.63
2018-07-25T03:03:54.606Z,12.30
2018-07-25T03:06:23.531Z,11.60
2018-07-25T03:08:52.574Z,11.40
2018-07-25T03:11:21.520Z,11.60
2018-07-25T03:13:50.519Z,11.93
2018-07-25T03:16:19.159Z,11.50
2018-07-25T03:18:47.814Z,11.60
2018-07-25T03:21:16.628Z,11.60
2018-07-25T03:23:45.739Z,11.97
2018-07-25T03:26:14.768Z,12.30
2018-07-25T03:28:43.481Z,13.13
2018-07-25T03:31:12.133Z,12.17
2018-07-25T03:33:41.140Z,12.50
2018-07-25T03:36:10.024Z,11.67
2018-07-25T03:38:38.807Z,13.90
2018-07-25T03:41:07.800Z,13.00
2018-07-25T03:43:36.465Z,12.17
2018-07-25T03:46:05.140Z,11.20
2018-07-25T03:48:34.070Z,12.13
2018-07-25T03:51:03.703Z,12.27
2018-07-25T03:53:32.345Z,12.00
2018-07-25T03:56:01.614Z,12.07
2018-07-25T03:58:31.032Z,12.20
2018-07-25T04:00:59.646Z,12.03
2018-07-25T04:03:28.364Z,12.73
2018-07-25T04:05:57.033Z,12.10
2018-07-25T04:08:25.724Z,12.30
2018-07-25T04:10:54.691Z,11.60
2018-07-25T04:13:23.706Z,11.90
2018-07-25T04:15:52.364Z,11.17
2018-07-25T04:18:21.435Z,12.40
2018-07-25T04:20:50.389Z,11.60
2018-07-25T04:23:19.351Z,11.83
2018-07-25T04:25:47.973Z,12.17
2018-07-25T04:28:16.836Z,12.77
2018-07-25T04:30:45.752Z,12.67
2018-07-25T04:33:14.719Z,12.30
2018-07-25T04:35:44.149Z,12.00
2018-07-25T04:38:13.473Z,12.00
2018-07-25T04:40:42.115Z,12.57
2018-07-25T04:43:10.723Z,12.20
2018-07-25T04:45:39.551Z,11.73
2018-07-25T04:48:08.818Z,11.80
2018-07-25T04:50:37.566Z,11.77
2018-07-25T04:53:06.372Z,11.73
2018-07-25T04:55:35.382Z,11.43
2018-07-25T04:58:04.687Z,12.00
2018-07-25T05:00:33.449Z,12.20
2018-07-25T05:03:03.101Z,11.67
2018-07-25T05:05:32.462Z,11.53
2018-07-25T05:08:01.702Z,11.43
2018-07-25T05:10:30.397Z,11.50
2018-07-25T05:12:59.083Z,12.00
2018-07-25T05:15:28.187Z,11.30
2018-07-25T05:17:56.861Z,11.03
2018-07-25T05:20:25.829Z,11.20
2018-07-25T05:22:54.479Z,11.67
2018-07-25T05:25:23.170Z,11.50
2018-07-25T05:27:51.792Z,11.73
2018-07-25T05:30:20.469Z,10.90
2018-07-25T05:32:49.839Z,11.10
2018-07-25T05:35:18.893Z,11.63
2018-07-25T05:37:47.538Z,11.40
2018-07-25T05:40:16.269Z,10.53
2018-07-25T05:42:45.465Z,11.37
2018-07-25T05:45:14.658Z,10.93
2018-07-25T05:47:43.596Z,11.17
2018-07-25T05:50:12.274Z,11.50
2018-07-25T05:52:41.039Z,10.70
2018-07-25T05:55:09.917Z,10.80
2018-07-25T05:57:38.582Z,10.53
2018-07-25T06:00:07.339Z,10.20
2018-07-25T06:02:36.371Z,11.17
2018-07-25T06:05:05.151Z,10.90
2018-07-25T06:07:34.144Z,10.93
2018-07-25T06:10:02.865Z,11.80
2018-07-25T06:12:31.854Z,12.13
2018-07-25T06:15:00.554Z,11.30
2018-07-25T06:17:29.242Z,11.20
2018-07-25T06:19:58.088Z,11.50
2018-07-25T06:22:26.776Z,10.83
2018-07-25T06:24:55.923Z,12.80
2018-07-25T06:27:24.576Z,11.87
2018-07-25T06:29:53.809Z,11.40
2018-07-25T06:32:22.463Z,11.70
2018-07-25T06:34:51.185Z,10.80
2018-07-25T06:37:20.481Z,10.60
2018-07-25T06:39:49.213Z,10.80
2018-07-25T06:42:17.921Z,10.60
2018-07-25T06:44:46.814Z,10.50
2018-07-25T06:47:15.549Z,9.80
2018-07-25T06:49:44.287Z,10.03
2018-07-25T06:52:16.820Z,10.77
2018-07-25T06:54:45.959Z,10.37
2018-07-25T06:57:16.032Z,11.00
2018-07-25T06:59:45.872Z,11.40
2018-07-25T07:02:14.565Z,11.33
2018-07-25T07:04:43.340Z,10.57
2018-07-25T07:07:12.259Z,11.23
2018-07-25T07:09:41.226Z,10.60
2018-07-25T07:12:10.192Z,10.10
2018-07-25T07:14:39.086Z,10.93
2018-07-25T07:17:08.106Z,11.40
2018-07-25T07:19:36.792Z,10.37
2018-07-25T07:22:05.956Z,11.20
2018-07-25T07:24:34.758Z,11.27
2018-07-25T07:27:03.539Z,10.50
2018-07-25T07:29:32.247Z,10.47
2018-07-25T07:32:01.113Z,10.70
2018-07-25T07:34:30.674Z,10.77
2018-07-25T07:36:59.421Z,10.50
2018-07-25T07:39:28.167Z,10.70
2018-07-25T07:41:56.917Z,10.70
2018-07-25T07:44:25.930Z,9.87
2018-07-25T07:46:54.717Z,10.00
2018-07-25T07:49:23.659Z,10.30
2018-07-25T07:51:52.303Z,10.00
2018-07-25T07:54:21.336Z,9.40
2018-07-25T07:56:50.023Z,10.03
2018-07-25T07:59:18.711Z,10.37
2018-07-25T08:01:47.428Z,10.20
2018-07-25T08:04:16.140Z,10.53
2018-07-25T08:06:44.873Z,10.13
2018-07-25T08:09:13.953Z,10.50
2018-07-25T08:11:42.949Z,10.93
2018-07-25T08:14:11.674Z,10.40
2018-07-25T08:16:40.978Z,10.50
2018-07-25T08:19:13.046Z,10.40
2018-07-25T08:21:42.006Z,10.80
2018-07-25T08:24:11.074Z,11.00
2018-07-25T08:26:40.398Z,10.40
2018-07-25T08:29:09.082Z,10.43
2018-07-25T08:31:37.744Z,10.17
2018-07-25T08:34:06.694Z,10.03
2018-07-25T08:36:35.417Z,10.50
2018-07-25T08:39:06.842Z,10.67
2018-07-25T08:41:35.728Z,10.60
2018-07-25T08:44:05.612Z,10.40
2018-07-25T08:46:34.347Z,9.90
2018-07-25T08:49:03.679Z,11.70
2018-07-25T08:51:32.677Z,10.47
2018-07-25T08:54:01.376Z,10.37
2018-07-25T08:56:30.332Z,10.23
2018-07-25T08:58:59.758Z,10.43
2018-07-25T09:01:28.694Z,10.17
2018-07-25T09:03:57.853Z,10.10
2018-07-25T09:06:26.794Z,9.73
2018-07-25T09:08:55.661Z,9.27
2018-07-25T09:11:29.249Z,10.27
2018-07-25T09:13:58.890Z,10.60
2018-07-25T09:16:28.086Z,9.77
2018-07-25T09:18:56.801Z,9.60
2018-07-25T09:21:25.831Z,9.87
2018-07-25T09:23:54.545Z,10.03
2018-07-25T09:26:23.598Z,9.70
2018-07-25T09:28:52.231Z,9.50
2018-07-25T09:31:20.887Z,9.57
2018-07-25T09:33:49.668Z,9.30
2018-07-25T09:36:18.910Z,9.43
2018-07-25T09:38:47.602Z,9.77
2018-07-25T09:41:16.343Z,9.53
2018-07-25T09:43:45.131Z,10.10
2018-07-25T09:46:14.002Z,9.67
2018-07-25T09:48:42.749Z,9.53
2018-07-25T09:51:11.808Z,10.20
2018-07-25T09:53:41.066Z,9.50
2018-07-25T09:56:09.726Z,10.80
2018-07-25T09:58:38.494Z,9.50
2018-07-25T10:01:07.705Z,9.30
2018-07-25T10:03:36.675Z,9.53
2018-07-25T10:06:05.491Z,9.57
2018-07-25T10:08:34.817Z,9.67
2018-07-25T10:11:03.784Z,9.53
2018-07-25T10:13:32.476Z,9.80
2018-07-25T10:16:01.191Z,10.10
2018-07-25T10:18:30.221Z,10.27
2018-07-25T10:20:58.941Z,9.80
2018-07-25T10:23:27.577Z,9.77
2018-07-25T10:25:56.621Z,9.23
2018-07-25T10:28:25.624Z,9.80
2018-07-25T10:30:54.575Z,9.37
2018-07-25T10:33:23.237Z,9.47
2018-07-25T10:35:52.043Z,9.03
2018-07-25T10:38:21.689Z,10.20
2018-07-25T10:40:51.449Z,9.87
2018-07-25T10:43:20.222Z,9.20
2018-07-25T10:45:49.283Z,9.60
2018-07-25T10:48:18.189Z,9.00
2018-07-25T10:50:48.985Z,9.40
2018-07-25T10:53:17.700Z,9.07
2018-07-25T10:55:46.571Z,8.83
2018-07-25T10:58:15.651Z,9.33
2018-07-25T11:00:44.390Z,9.00
2018-07-25T11:03:13.585Z,8.97
2018-07-25T11:05:42.727Z,8.80
2018-07-25T11:08:12.657Z,8.70
2018-07-25T11:10:41.366Z,9.23
2018-07-25T11:13:10.503Z,9.13
2018-07-25T11:15:39.326Z,9.63
2018-07-25T11:18:08.241Z,9.20
2018-07-25T11:20:37.512Z,9.00
2018-07-25T11:23:06.808Z,9.07
2018-07-25T11:25:36.758Z,9.33
2018-07-25T11:28:05.651Z,8.87
2018-07-25T11:30:35.242Z,9.20
2018-07-25T11:33:04.227Z,9.10
2018-07-25T11:35:33.225Z,8.40
2018-07-25T11:38:02.278Z,9.00
2018-07-25T11:40:30.956Z,9.10
2018-07-25T11:42:59.678Z,8.93
2018-07-25T11:45:28.353Z,10.00
2018-07-25T11:47:57.355Z,9.30
2018-07-25T11:50:26.127Z,8.93
2018-07-25T11:52:54.764Z,9.03
2018-07-25T11:55:23.827Z,9.27
2018-07-25T11:57:52.477Z,9.20
2018-07-25T12:00:21.694Z,9.00
2018-07-25T12:02:51.441Z,9.20
2018-07-25T12:05:20.397Z,9.23
2018-07-25T12:07:49.631Z,8.90
2018-07-25T12:10:18.511Z,9.30
2018-07-25T12:12:47.414Z,8.77
2018-07-25T12:15:16.088Z,8.37
2018-07-25T12:17:44.933Z,8.47
2018-07-25T12:20:13.693Z,9.60
2018-07-25T12:22:42.506Z,8.70
2018-07-25T12:25:11.241Z,8.50
2018-07-25T12:27:39.977Z,8.63
2018-07-25T12:30:09.364Z,8.53
2018-07-25T12:32:38.484Z,8.53
2018-07-25T12:35:07.240Z,8.50
2018-07-25T12:37:36.210Z,8.48
2018-07-25T12:40:05.092Z,8.58
2018-07-25T12:42:33.743Z,7.65
2018-07-25T12:45:02.700Z,8.33
2018-07-25T12:47:31.719Z,8.30
2018-07-25T12:50:00.360Z,8.15
2018-07-25T12:52:29.172Z,8.00
2018-07-25T12:54:57.810Z,8.40
2018-07-25T12:57:26.464Z,7.70
2018-07-25T12:59:55.429Z,7.60
2018-07-25T13:02:24.224Z,7.85
2018-07-25T13:04:52.979Z,7.80
2018-07-25T13:07:22.284Z,7.72
2018-07-25T13:09:50.958Z,7.70
2018-07-25T13:12:20.149Z,7.97
2018-07-25T13:14:49.292Z,7.92
2018-07-25T13:17:17.977Z,8.00
2018-07-25T13:19:46.650Z,8.30
2018-07-25T13:22:15.911Z,8.55
2018-07-25T13:24:45.056Z,8.28
2018-07-25T13:27:13.777Z,8.20
2018-07-25T13:29:42.772Z,8.50
2018-07-25T13:32:11.467Z,8.20
2018-07-25T13:34:40.448Z,8.10
2018-07-25T13:37:09.413Z,7.92
2018-07-25T13:39:38.512Z,8.28
2018-07-25T13:42:07.476Z,7.72
2018-07-25T13:44:36.424Z,8.20
2018-07-25T13:47:05.346Z,8.00
2018-07-25T13:49:34.365Z,7.72
2018-07-25T13:52:03.730Z,8.30
2018-07-25T13:54:32.313Z,8.33
2018-07-25T13:57:00.974Z,8.10
2018-07-25T13:59:29.656Z,8.83
2018-07-25T14:01:58.457Z,7.95
2018-07-25T14:04:27.643Z,8.13
2018-07-25T14:06:56.393Z,8.50
2018-07-25T14:09:25.319Z,8.23
2018-07-25T14:11:54.508Z,7.90
2018-07-25T14:14:23.270Z,7.47
2018-07-25T14:16:52.497Z,7.95
2018-07-25T14:19:21.821Z,7.65
2018-07-25T14:21:50.521Z,7.80
2018-07-25T14:24:19.548Z,7.95
2018-07-25T14:26:48.555Z,8.10
2018-07-25T14:29:17.460Z,7.53
2018-07-25T14:31:46.561Z,8.00
2018-07-25T14:34:15.558Z,8.00
2018-07-25T14:36:44.273Z,8.48
2018-07-25T14:39:13.380Z,7.80
2018-07-25T14:41:42.077Z,7.97
2018-07-25T14:44:11.252Z,8.00
2018-07-25T14:46:40.298Z,8.50
2018-07-25T14:49:08.971Z,8.25
2018-07-25T14:51:37.772Z,8.50
2018-07-25T14:54:06.480Z,8.50
2018-07-25T14:56:35.164Z,8.58
2018-07-25T14:59:04.057Z,8.60
2018-07-25T15:01:32.724Z,9.50
2018-07-25T15:04:01.854Z,8.68
2018-07-25T15:06:30.559Z,9.10
2018-07-25T15:08:59.460Z,9.00
2018-07-25T15:11:28.121Z,8.60
2018-07-25T15:13:57.003Z,8.90
2018-07-25T15:16:25.648Z,8.77
2018-07-25T15:18:54.346Z,8.70
2018-07-25T15:21:23.313Z,8.90
2018-07-25T15:24:04.171Z,8.60
2018-07-25T15:26:33.070Z,8.80
2018-07-25T15:29:03.198Z,9.00
2018-07-25T15:31:31.840Z,8.93
2018-07-25T15:34:00.540Z,9.30
2018-07-25T15:36:41.644Z,9.13
2018-07-25T15:39:28.468Z,9.70
2018-07-25T15:41:58.582Z,9.20
2018-07-25T15:44:28.467Z,9.10
2018-07-25T15:46:57.249Z,9.60
2018-07-25T15:49:27.051Z,9.30
2018-07-25T15:51:55.795Z,8.93
2018-07-25T15:54:24.854Z,9.30
2018-07-25T15:56:53.790Z,9.13
2018-07-25T15:59:22.844Z,9.50
2018-07-25T16:01:51.650Z,9.23
2018-07-25T16:04:20.367Z,9.30
2018-07-25T16:06:49.157Z,9.03
2018-07-25T16:09:18.180Z,8.70
2018-07-25T16:11:47.790Z,9.47
2018-07-25T16:14:16.913Z,9.37
2018-07-25T16:16:45.920Z,9.47
2018-07-25T16:19:15.112Z,9.00
2018-07-25T16:21:44.164Z,9.17
2018-07-25T16:24:13.332Z,8.80
2018-07-25T16:26:41.975Z,9.20
2018-07-25T16:29:10.761Z,9.23
2018-07-25T16:31:39.703Z,9.10
2018-07-25T16:34:08.387Z,8.90
2018-07-25T16:36:37.129Z,9.60
2018-07-25T16:39:09.165Z,9.30
2018-07-25T16:41:37.899Z,9.40
2018-07-25T16:44:06.613Z,9.10
2018-07-25T16:46:35.398Z,9.70
2018-07-25T16:49:04.120Z,9.63
2018-07-25T16:51:32.838Z,9.37
2018-07-25T16:54:01.947Z,8.80
2018-07-25T16:56:30.711Z,9.60
2018-07-25T16:58:59.382Z,9.87
2018-07-25T17:01:28.183Z,9.77
2018-07-25T17:03:57.075Z,9.37
2018-07-25T17:06:26.081Z,9.47
2018-07-25T17:08:54.993Z,9.60
2018-07-25T17:11:23.722Z,9.03
2018-07-25T17:13:52.407Z,9.03
2018-07-25T17:16:21.181Z,9.57
2018-07-25T17:18:50.024Z,9.20
2018-07-25T17:21:18.861Z,9.30
2018-07-25T17:23:47.764Z,9.10
2018-07-25T17:26:16.705Z,10.23
2018-07-25T17:28:45.636Z,10.10
2018-07-25T17:31:14.399Z,9.47
2018-07-25T17:33:43.329Z,9.80
2018-07-25T17:36:12.300Z,9.97
2018-07-25T17:38:41.445Z,9.27
2018-07-25T17:41:10.234Z,9.20
2018-07-25T17:43:38.924Z,9.00
2018-07-25T17:46:07.797Z,9.20
2018-07-25T17:48:36.773Z,9.50
2018-07-25T17:51:05.566Z,9.33
2018-07-25T17:53:34.578Z,9.03
2018-07-25T17:56:03.403Z,9.67
2018-07-25T17:58:32.426Z,9.50
2018-07-25T18:01:01.517Z,9.20
2018-07-25T18:03:30.663Z,9.30
2018-07-25T18:06:00.479Z,9.37
2018-07-25T18:08:29.609Z,9.80
2018-07-25T18:10:58.622Z,9.80
2018-07-25T18:13:32.794Z,10.30
2018-07-25T18:16:01.565Z,9.67
2018-07-25T18:18:30.619Z,9.50
2018-07-25T18:21:00.150Z,10.00
2018-07-25T18:23:28.870Z,10.10
2018-07-25T18:25:57.730Z,9.70
2018-07-25T18:28:26.904Z,9.80
2018-07-25T18:30:55.736Z,9.53
2018-07-25T18:33:27.187Z,9.43
2018-07-25T18:35:57.058Z,9.70
2018-07-25T18:38:26.182Z,9.30
2018-07-25T18:40:54.855Z,9.63
2018-07-25T18:43:23.585Z,10.50
2018-07-25T18:45:52.274Z,10.10
2018-07-25T18:48:21.042Z,10.13
2018-07-25T18:50:50.005Z,11.20
2018-07-25T18:53:20.893Z,10.03
2018-07-25T18:55:51.776Z,9.07
2018-07-25T18:58:20.515Z,9.40
2018-07-25T19:00:50.152Z,10.07
2018-07-25T19:03:19.016Z,9.70
2018-07-25T19:05:48.713Z,10.27
2018-07-25T19:08:18.573Z,9.70
2018-07-25T19:10:50.220Z,9.73
2018-07-25T19:13:24.185Z,9.50
2018-07-25T19:15:52.963Z,9.90
2018-07-25T19:18:21.962Z,9.50
2018-07-25T19:20:51.070Z,9.70
2018-07-25T19:23:20.105Z,9.70
2018-07-25T19:25:49.352Z,9.73
2018-07-25T19:28:18.313Z,9.70
2018-07-25T19:30:47.306Z,10.27
2018-07-25T19:33:15.983Z,9.70
2018-07-25T19:35:44.997Z,9.80
2018-07-25T19:38:14.022Z,10.63
2018-07-25T19:40:43.302Z,10.30
2018-07-25T19:43:11.953Z,10.50
2018-07-25T19:45:40.976Z,10.23
2018-07-25T19:48:09.664Z,10.10
2018-07-25T19:50:38.583Z,9.93
2018-07-25T19:53:07.430Z,9.97
2018-07-25T19:55:36.203Z,9.93
2018-07-25T19:58:05.376Z,9.50
2018-07-25T20:00:34.728Z,9.90
2018-07-25T20:03:03.843Z,9.90
2018-07-25T20:05:33.241Z,9.83
2018-07-25T20:08:02.530Z,9.67
2018-07-25T20:10:31.553Z,10.23
2018-07-25T20:13:00.310Z,10.90
2018-07-25T20:15:34.828Z,9.60
2018-07-25T20:18:03.978Z,10.30
2018-07-25T20:20:32.793Z,10.87
2018-07-25T20:23:01.721Z,10.17
2018-07-25T20:25:30.643Z,9.47
2018-07-25T20:28:00.750Z,9.60
2018-07-25T20:30:30.962Z,9.50
2018-07-25T20:33:00.008Z,10.10
2018-07-25T20:35:29.258Z,9.20
2018-07-25T20:37:58.260Z,9.83
2018-07-25T20:40:27.139Z,10.10
2018-07-25T20:42:55.884Z,9.83
2018-07-25T20:45:24.666Z,9.80
2018-07-25T20:47:53.630Z,9.57
2018-07-25T20:50:22.571Z,9.83
2018-07-25T20:52:52.833Z,9.80
2018-07-25T20:55:22.767Z,9.40
2018-07-25T20:57:52.582Z,9.80
2018-07-25T21:00:27.175Z,9.87
2018-07-25T21:02:57.115Z,10.50
2018-07-25T21:05:25.900Z,9.90
2018-07-25T21:07:54.645Z,10.07
2018-07-25T21:10:23.766Z,9.83
2018-07-25T21:12:55.083Z,10.40
2018-07-25T21:15:24.341Z,10.17
2018-07-25T21:17:53.659Z,9.97
2018-07-25T21:20:22.352Z,9.67
2018-07-25T21:22:51.061Z,9.87
2018-07-25T21:25:20.935Z,9.20
2018-07-25T21:27:49.641Z,9.63
2018-07-25T21:30:18.953Z,10.50
2018-07-25T21:32:48.131Z,10.03
2018-07-25T21:35:16.858Z,10.20
2018-07-25T21:37:46.429Z,10.43
2018-07-25T21:40:15.928Z,10.30
2018-07-25T21:42:44.760Z,10.10
2018-07-25T21:45:13.991Z,10.00
2018-07-25T21:47:42.707Z,10.20
2018-07-25T21:50:11.798Z,10.13
2018-07-25T21:52:41.460Z,9.93
2018-07-25T21:55:10.184Z,10.03
2018-07-25T21:57:45.337Z,10.23
2018-07-25T22:00:17.994Z,9.73
2018-07-25T22:02:48.035Z,9.80
2018-07-25T22:05:19.867Z,9.23
2018-07-25T22:07:49.765Z,9.70
2018-07-25T22:10:18.838Z,10.23
2018-07-25T22:12:48.320Z,10.00
2018-07-25T22:15:18.199Z,10.00
2018-07-25T22:17:46.881Z,10.33
2018-07-25T22:20:17.031Z,11.53
2018-07-25T22:22:45.824Z,10.20
2018-07-25T22:25:14.849Z,9.87
2018-07-25T22:27:44.698Z,9.80
2018-07-25T22:30:13.950Z,10.00
2018-07-25T22:32:42.928Z,10.77
2018-07-25T22:35:11.597Z,10.80
2018-07-25T22:37:40.326Z,11.23
2018-07-25T22:40:08.950Z,11.70
2018-07-25T22:42:37.594Z,10.90
2018-07-25T22:45:06.348Z,10.20
2018-07-25T22:47:35.002Z,10.87
2018-07-25T22:50:04.350Z,10.10
2018-07-25T22:52:33.548Z,10.10
2018-07-25T22:55:02.327Z,9.67
2018-07-25T22:57:31.046Z,10.13
2018-07-25T23:00:00.100Z,10.40
2018-07-25T23:02:28.842Z,10.57
2018-07-25T23:04:57.480Z,11.00
2018-07-25T23:07:26.986Z,10.07
2018-07-25T23:09:55.951Z,10.50
2018-07-25T23:12:24.902Z,10.67
2018-07-25T23:14:53.886Z,10.63
2018-07-25T23:17:22.525Z,10.00
2018-07-25T23:19:51.524Z,11.20
2018-07-25T23:22:20.127Z,10.57
2018-07-25T23:24:49.116Z,10.63
2018-07-25T23:27:17.738Z,10.33
2018-07-25T23:29:46.353Z,10.20
2018-07-25T23:32:15.296Z,10.80
2018-07-25T23:34:44.313Z,11.20
2018-07-25T23:37:13.004Z,10.37
2018-07-25T23:39:41.696Z,10.70
2018-07-25T23:42:10.398Z,10.90
2018-07-25T23:44:39.110Z,10.60
2018-07-25T23:47:08.000Z,10.90
2018-07-25T23:49:37.459Z,10.63
2018-07-25T23:52:06.205Z,10.50
2018-07-25T23:54:34.850Z,10.53
2018-07-25T23:57:03.467Z,11.00
2018-07-25T23:59:32.121Z,10.63
